createdAt,value
2023-04-03T00:02:54.476Z,3.10
2023-04-03T00:07:02.673Z,4.00
2023-04-03T00:11:00.884Z,4.60
2023-04-03T00:14:28.946Z,4.60
2023-04-03T00:18:36.986Z,2.20
2023-04-03T00:22:37.735Z,3.50
2023-04-03T00:26:21.209Z,4.40
2023-04-03T00:30:19.267Z,5.10
2023-04-03T00:34:12.293Z,5.30
2023-04-03T00:37:53.037Z,2.60
2023-04-03T00:42:01.044Z,3.00
2023-04-03T00:46:08.686Z,3.60
2023-04-03T00:50:16.970Z,3.40
2023-04-03T00:54:25.304Z,2.50
2023-04-03T00:57:39.143Z,1.70
2023-04-03T01:00:24.447Z,2.90
2023-04-03T01:03:32.650Z,2.00
2023-04-03T01:06:27.263Z,2.00
2023-04-03T01:09:18.752Z,2.40
2023-04-03T01:11:49.892Z,1.50
2023-04-03T01:15:30.106Z,1.10
2023-04-03T01:18:39.234Z,1.70
2023-04-03T01:21:28.582Z,1.20
2023-04-03T01:24:54.322Z,1.70
2023-04-03T01:28:22.627Z,1.60
2023-04-03T01:31:21.797Z,1.90
2023-04-03T01:34:17.665Z,1.50
2023-04-03T01:37:18.298Z,2.00
2023-04-03T01:40:40.685Z,2.60
2023-04-03T01:43:49.104Z,2.30
2023-04-03T01:46:26.021Z,3.30
2023-04-03T01:49:06.144Z,2.50
2023-04-03T01:52:04.195Z,1.70
2023-04-03T01:55:28.786Z,2.90
2023-04-03T01:58:16.409Z,0.80
2023-04-03T02:01:21.153Z,1.40
2023-04-03T02:04:25.798Z,1.40
2023-04-03T02:07:09.712Z,2.10
2023-04-03T02:10:22.592Z,3.40
2023-04-03T02:13:41.598Z,3.00
2023-04-03T02:17:01.804Z,1.70
2023-04-03T02:19:44.209Z,2.30
2023-04-03T02:22:39.293Z,1.60
2023-04-03T02:25:40.160Z,1.70
2023-04-03T02:28:27.211Z,2.40
2023-04-03T02:33:57.555Z,3.00
2023-04-03T02:36:32.879Z,1.40
2023-04-03T02:39:33.714Z,1.80
2023-04-03T02:42:33.117Z,1.90
2023-04-03T02:45:20.966Z,1.40
2023-04-03T02:48:31.264Z,4.00
2023-04-03T02:51:02.166Z,1.80
2023-04-03T02:53:43.511Z,1.60
2023-04-03T02:57:11.204Z,1.20
2023-04-03T03:00:13.410Z,1.80
2023-04-03T03:03:03.772Z,1.40
2023-04-03T03:05:37.281Z,1.30
2023-04-03T03:08:14.223Z,1.90
2023-04-03T03:10:55.134Z,1.60
2023-04-03T03:13:25.054Z,1.40
2023-04-03T03:16:01.663Z,1.00
2023-04-03T03:18:36.394Z,1.30
2023-04-03T03:21:19.819Z,2.20
2023-04-03T03:24:10.069Z,2.20
2023-04-03T03:26:37.064Z,2.40
2023-04-03T03:29:22.855Z,1.90
2023-04-03T03:32:24.117Z,2.50
2023-04-03T03:34:56.913Z,2.10
2023-04-03T03:37:29.452Z,1.40
2023-04-03T03:40:14.461Z,1.20
2023-04-03T03:42:44.248Z,1.40
2023-04-03T03:45:15.164Z,1.00
2023-04-03T03:47:50.656Z,1.20
2023-04-03T03:50:38.308Z,1.30
2023-04-03T03:53:09.102Z,0.70
2023-04-03T03:55:43.511Z,1.00
2023-04-03T03:58:27.925Z,0.90
2023-04-03T04:01:32.085Z,2.10
2023-04-03T04:04:24.764Z,1.60
2023-04-03T04:07:04.241Z,1.20
2023-04-03T04:09:49.292Z,1.20
2023-04-03T04:12:17.085Z,1.90
2023-04-03T04:15:02.350Z,1.30
2023-04-03T04:20:03.757Z,1.60
2023-04-03T04:23:00.729Z,2.10
2023-04-03T04:25:57.882Z,2.30
2023-04-03T04:28:56.958Z,2.30
2023-04-03T04:32:05.103Z,1.50
2023-04-03T04:34:58.566Z,1.60
2023-04-03T04:37:53.672Z,1.20
2023-04-03T04:43:34.083Z,2.00
2023-04-03T04:46:19.420Z,2.70
2023-04-03T04:48:58.703Z,3.20
2023-04-03T04:51:28.438Z,2.70
2023-04-03T04:54:21.356Z,1.60
2023-04-03T04:57:04.470Z,1.60
2023-04-03T05:00:33.701Z,1.20
2023-04-03T05:03:11.267Z,2.10
2023-04-03T05:05:40.395Z,2.40
2023-04-03T05:08:49.474Z,1.40
2023-04-03T05:11:37.153Z,1.90
2023-04-03T05:14:19.241Z,2.30
2023-04-03T05:16:57.176Z,2.80
2023-04-03T05:19:34.288Z,2.70
2023-04-03T05:22:25.236Z,2.90
2023-04-03T05:25:03.118Z,3.80
2023-04-03T05:27:41.043Z,2.70
2023-04-03T05:30:12.127Z,3.00
2023-04-03T05:32:43.383Z,2.30
2023-04-03T05:35:22.050Z,2.80
2023-04-03T05:37:52.178Z,3.30
2023-04-03T05:40:45.786Z,2.40
2023-04-03T05:43:38.849Z,2.00
2023-04-03T05:46:17.754Z,1.90
2023-04-03T05:48:57.190Z,2.20
2023-04-03T05:51:36.058Z,3.30
2023-04-03T05:54:17.672Z,2.90
2023-04-03T05:56:53.262Z,2.90
2023-04-03T06:03:23.580Z,3.10
2023-04-03T06:05:51.495Z,5.20
2023-04-03T06:08:18.745Z,3.60
2023-04-03T06:10:51.715Z,4.80
2023-04-03T06:13:29.622Z,2.20
2023-04-03T06:15:57.800Z,2.00
2023-04-03T06:18:26.491Z,3.10
2023-04-03T06:21:11.860Z,2.60
2023-04-03T06:23:43.095Z,3.70
2023-04-03T06:26:10.764Z,4.00
2023-04-03T06:28:40.366Z,3.80
2023-04-03T06:31:10.287Z,2.30
2023-04-03T06:33:48.870Z,2.90
2023-04-03T06:36:20.736Z,2.50
2023-04-03T06:38:56.632Z,3.60
2023-04-03T06:41:27.291Z,7.60
2023-04-03T06:44:01.942Z,6.70
2023-04-03T06:46:49.532Z,3.60
2023-04-03T06:49:17.043Z,3.10
2023-04-03T06:51:44.337Z,2.50
2023-04-03T06:54:34.703Z,3.20
2023-04-03T06:57:06.970Z,4.10
2023-04-03T06:59:37.693Z,3.10
2023-04-03T07:02:05.048Z,3.90
2023-04-03T07:04:34.908Z,6.20
2023-04-03T07:07:02.051Z,5.60
2023-04-03T07:09:29.571Z,4.40
2023-04-03T07:11:59.151Z,2.80
2023-04-03T07:14:26.560Z,2.60
2023-04-03T07:16:54.047Z,2.30
2023-04-03T07:19:22.827Z,4.00
2023-04-03T07:21:52.802Z,4.10
2023-04-03T07:24:20.047Z,4.70
2023-04-03T07:26:58.257Z,4.80
2023-04-03T07:29:25.477Z,3.90
2023-04-03T07:32:16.096Z,3.00
2023-04-03T07:34:43.689Z,2.40
2023-04-03T07:37:12.713Z,3.20
2023-04-03T07:42:38.409Z,2.90
2023-04-03T07:45:24.004Z,3.60
2023-04-03T07:47:51.713Z,3.80
2023-04-03T07:50:28.385Z,2.40
2023-04-03T07:52:58.787Z,2.90
2023-04-03T07:55:26.472Z,3.50
2023-04-03T07:59:22.635Z,2.90
2023-04-03T08:01:52.971Z,3.80
2023-04-03T08:04:20.327Z,4.10
2023-04-03T08:06:48.092Z,3.30
2023-04-03T08:09:24.350Z,3.70
2023-04-03T08:11:57.323Z,4.40
2023-04-03T08:21:32.240Z,3.20
2023-04-03T08:23:59.570Z,2.20
2023-04-03T08:26:29.530Z,2.20
2023-04-03T08:28:57.079Z,2.80
2023-04-03T08:31:24.219Z,5.00
2023-04-03T08:33:58.488Z,4.30
2023-04-03T08:36:29.658Z,3.20
2023-04-03T08:38:57.234Z,3.10
2023-04-03T08:41:34.356Z,4.00
2023-04-03T08:44:23.405Z,4.50
2023-04-03T08:46:59.427Z,3.80
2023-04-03T08:49:33.557Z,5.50
2023-04-03T08:55:59.111Z,3.50
2023-04-03T08:58:28.173Z,4.00
2023-04-03T09:01:09.428Z,3.40
2023-04-03T09:03:39.309Z,2.20
2023-04-03T09:06:21.591Z,2.50
2023-04-03T09:08:52.418Z,3.80
2023-04-03T09:18:23.411Z,4.00
2023-04-03T09:27:15.660Z,1.80
2023-04-03T09:29:44.488Z,2.00
2023-04-03T09:32:50.614Z,2.20
2023-04-03T09:35:48.982Z,1.90
2023-04-03T09:38:38.991Z,2.70
2023-04-03T09:41:08.553Z,2.70
2023-04-03T09:45:28.683Z,2.50
2023-04-03T09:48:16.721Z,2.50
2023-04-03T09:51:02.649Z,2.60
2023-04-03T09:53:36.360Z,3.80
2023-04-03T09:56:23.288Z,3.00
2023-04-03T09:59:22.720Z,2.50
2023-04-03T10:02:05.272Z,2.60
2023-04-03T10:04:41.845Z,4.20
2023-04-03T10:07:32.565Z,4.30
2023-04-03T10:10:27.336Z,3.30
2023-04-03T10:13:22.115Z,4.20
2023-04-03T10:16:12.421Z,3.20
2023-04-03T10:19:05.099Z,4.00
2023-04-03T10:22:02.511Z,3.50
2023-04-03T10:24:45.708Z,3.80
2023-04-03T10:27:51.998Z,4.00
2023-04-03T10:30:34.800Z,3.20
2023-04-03T10:33:22.035Z,4.70
2023-04-03T10:36:14.349Z,6.70
2023-04-03T10:39:33.016Z,5.80
2023-04-03T10:42:17.648Z,3.50
2023-04-03T10:45:01.185Z,3.00
2023-04-03T10:47:42.870Z,4.10
2023-04-03T10:50:39.795Z,5.40
2023-04-03T10:53:33.704Z,3.90
2023-04-03T10:56:16.880Z,4.70
2023-04-03T10:59:02.306Z,4.80
2023-04-03T11:01:34.822Z,4.80
2023-04-03T11:04:02.877Z,8.00
2023-04-03T11:06:48.837Z,3.30
2023-04-03T11:09:23.742Z,2.80
2023-04-03T11:12:07.980Z,3.30
2023-04-03T11:14:46.981Z,3.80
2023-04-03T11:17:20.088Z,3.00
2023-04-03T11:19:50.059Z,3.50
2023-04-03T11:22:49.415Z,4.40
2023-04-03T11:25:22.674Z,2.80
2023-04-03T11:27:52.133Z,6.50
2023-04-03T11:30:41.910Z,3.10
2023-04-03T11:33:12.392Z,2.70
2023-04-03T11:35:47.170Z,3.90
2023-04-03T11:38:27.595Z,3.80
2023-04-03T11:40:55.407Z,3.20
2023-04-03T11:43:26.898Z,4.00
2023-04-03T11:45:55.937Z,3.40
2023-04-03T11:48:33.226Z,3.50
2023-04-03T11:51:03.890Z,3.80
2023-04-03T11:53:36.416Z,2.50
2023-04-03T11:56:24.113Z,3.80
2023-04-03T11:59:11.988Z,3.70
2023-04-03T12:01:51.020Z,2.60
2023-04-03T12:04:20.318Z,4.10
2023-04-03T12:06:57.471Z,3.90
2023-04-03T12:09:24.840Z,4.00
2023-04-03T12:11:53.493Z,3.90
2023-04-03T12:14:32.061Z,4.10
2023-04-03T12:17:17.985Z,3.20
2023-04-03T12:19:48.188Z,4.60
2023-04-03T12:22:17.288Z,4.30
2023-04-03T12:24:48.015Z,3.40
2023-04-03T12:27:22.984Z,3.30
2023-04-03T12:29:57.138Z,3.80
2023-04-03T12:34:51.408Z,2.80
2023-04-03T12:37:31.821Z,3.90
2023-04-03T12:40:21.121Z,2.70
2023-04-03T12:43:08.128Z,3.50
2023-04-03T12:45:45.587Z,7.00
2023-04-03T12:48:26.325Z,5.10
2023-04-03T12:50:58.008Z,4.00
2023-04-03T12:53:43.904Z,4.20
2023-04-03T13:02:39.832Z,6.10
2023-04-03T13:05:18.519Z,3.80
2023-04-03T13:08:01.288Z,3.70
2023-04-03T13:10:28.556Z,2.70
2023-04-03T13:13:00.694Z,4.90
2023-04-03T13:15:38.861Z,6.20
2023-04-03T13:18:24.691Z,4.50
2023-04-03T13:20:52.124Z,6.80
2023-04-03T13:23:22.202Z,4.60
2023-04-03T13:25:49.957Z,5.40
2023-04-03T13:28:21.585Z,3.80
2023-04-03T13:31:15.022Z,5.20
2023-04-03T13:33:52.741Z,6.90
2023-04-03T13:36:26.164Z,5.10
2023-04-03T13:39:01.502Z,6.50
2023-04-03T13:41:40.122Z,4.50
2023-04-03T13:44:22.926Z,4.90
2023-04-03T13:46:54.238Z,8.10
2023-04-03T13:49:28.203Z,8.50
2023-04-03T13:52:06.457Z,8.80
2023-04-03T13:54:40.040Z,7.80
2023-04-03T13:57:24.207Z,4.30
2023-04-03T13:59:51.470Z,8.60
2023-04-03T14:02:40.555Z,4.20
2023-04-03T14:05:09.436Z,5.70
2023-04-03T14:07:36.580Z,9.10
2023-04-03T14:10:06.394Z,5.60
2023-04-03T14:12:38.345Z,13.40
2023-04-03T14:15:15.325Z,10.20
2023-04-03T14:17:45.766Z,7.00
2023-04-03T14:20:17.776Z,9.00
2023-04-03T14:22:47.503Z,7.10
2023-04-03T14:25:14.664Z,5.60
2023-04-03T14:27:46.666Z,7.70
2023-04-03T14:30:19.032Z,8.80
2023-04-03T14:32:47.802Z,4.80
2023-04-03T14:35:35.189Z,8.30
2023-04-03T14:38:31.162Z,5.20
2023-04-03T14:41:16.989Z,10.70
2023-04-03T14:43:59.593Z,8.30
2023-04-03T14:46:48.311Z,6.30
2023-04-03T14:49:29.975Z,8.10
2023-04-03T14:52:00.428Z,13.70
2023-04-03T14:54:34.362Z,12.40
2023-04-03T14:57:09.700Z,7.40
2023-04-03T14:59:37.995Z,7.20
2023-04-03T15:02:30.732Z,6.70
2023-04-03T15:04:59.084Z,4.60
2023-04-03T15:07:38.144Z,8.00
2023-04-03T15:10:24.718Z,4.30
2023-04-03T15:12:58.385Z,4.60
2023-04-03T15:15:26.110Z,4.80
2023-04-03T15:18:00.249Z,4.70
2023-04-03T15:20:27.997Z,7.10
2023-04-03T15:22:57.268Z,9.40
2023-04-03T15:25:24.922Z,10.60
2023-04-03T15:28:10.347Z,6.10
2023-04-03T15:30:48.526Z,4.40
2023-04-03T15:33:16.901Z,4.80
2023-04-03T15:35:52.540Z,8.20
2023-04-03T15:38:23.582Z,9.40
2023-04-03T15:40:50.652Z,7.40
2023-04-03T15:43:17.692Z,12.50
2023-04-03T15:45:45.384Z,8.90
2023-04-03T15:48:16.731Z,12.50
2023-04-03T15:50:46.957Z,9.20
2023-04-03T15:53:14.539Z,12.90
2023-04-03T15:55:42.562Z,7.90
2023-04-03T15:58:09.851Z,4.60
2023-04-03T16:00:38.513Z,5.70
2023-04-03T16:03:12.872Z,5.50
2023-04-03T16:05:40.553Z,6.20
2023-04-03T16:08:08.890Z,6.00
2023-04-03T16:10:43.462Z,4.70
2023-04-03T16:13:10.391Z,5.40
2023-04-03T16:15:39.165Z,5.70
2023-04-03T16:18:09.220Z,4.60
2023-04-03T16:20:44.852Z,7.10
2023-04-03T16:23:12.475Z,5.40
2023-04-03T16:25:39.695Z,4.30
2023-04-03T16:28:07.593Z,5.10
2023-04-03T16:30:47.252Z,4.00
2023-04-03T16:33:22.486Z,3.30
2023-04-03T16:35:53.012Z,5.30
2023-04-03T16:38:23.334Z,5.90
2023-04-03T16:40:53.601Z,5.10
2023-04-03T16:43:20.760Z,6.20
2023-04-03T16:45:51.037Z,6.10
2023-04-03T16:48:18.389Z,5.10
2023-04-03T16:50:50.053Z,5.50
2023-04-03T16:53:19.712Z,5.00
2023-04-03T16:55:50.753Z,7.20
2023-04-03T16:58:18.602Z,4.60
2023-04-03T17:00:48.736Z,5.00
2023-04-03T17:03:16.795Z,7.40
2023-04-03T17:05:44.843Z,4.40
2023-04-03T17:08:11.952Z,6.30
2023-04-03T17:10:40.636Z,6.80
2023-04-03T17:13:15.399Z,12.90
2023-04-03T17:15:42.759Z,38.80
2023-04-03T17:18:34.550Z,13.80
2023-04-03T17:21:08.275Z,15.10
2023-04-03T17:23:38.122Z,9.80
2023-04-03T17:26:08.263Z,7.20
2023-04-03T17:28:35.513Z,7.10
2023-04-03T17:31:03.774Z,5.40
2023-04-03T17:33:34.890Z,7.50
2023-04-03T17:36:04.465Z,6.80
2023-04-03T17:38:34.543Z,7.20
2023-04-03T17:41:07.123Z,9.90
2023-04-03T17:43:34.696Z,8.30
2023-04-03T17:46:03.887Z,9.70
2023-04-03T17:51:07.960Z,6.80
2023-04-03T17:53:38.502Z,6.00
2023-04-03T17:56:27.723Z,6.50
2023-04-03T17:58:58.222Z,7.60
2023-04-03T18:01:32.598Z,10.60
2023-04-03T18:04:02.273Z,8.10
2023-04-03T18:06:51.125Z,8.00
2023-04-03T18:09:20.883Z,6.90
2023-04-03T18:11:48.170Z,7.10
2023-04-03T18:14:17.018Z,6.20
2023-04-03T18:16:43.912Z,5.10
2023-04-03T18:19:22.979Z,6.50
2023-04-03T18:24:26.452Z,5.80
2023-04-03T18:26:58.415Z,5.30
2023-04-03T18:29:25.625Z,8.20
2023-04-03T18:31:54.283Z,7.60
2023-04-03T18:34:21.267Z,8.00
2023-04-03T18:36:49.202Z,7.00
2023-04-03T18:39:23.354Z,9.10
2023-04-03T18:44:28.787Z,7.50
2023-04-03T18:46:59.519Z,9.80
2023-04-03T18:49:33.035Z,10.50
2023-04-03T18:52:00.560Z,9.60
2023-04-03T18:54:30.099Z,7.90
2023-04-03T18:56:57.983Z,8.20
2023-04-03T18:59:31.464Z,8.40
2023-04-03T19:02:00.644Z,9.10
2023-04-03T19:04:30.836Z,7.80
2023-04-03T19:07:06.480Z,8.10
2023-04-03T19:09:38.729Z,9.50
2023-04-03T19:12:07.264Z,8.50
2023-04-03T19:17:08.334Z,10.30
2023-04-03T19:19:35.770Z,7.10
2023-04-03T19:22:03.072Z,6.60
2023-04-03T19:24:30.835Z,11.10
2023-04-03T19:27:10.062Z,9.40
2023-04-03T19:29:40.146Z,10.80
2023-04-03T19:32:07.248Z,10.20
2023-04-03T19:34:34.914Z,9.10
2023-04-03T19:37:02.620Z,7.30
2023-04-03T19:39:35.215Z,6.50
2023-04-03T19:42:03.682Z,11.50
2023-04-03T19:44:35.758Z,9.90
2023-04-03T19:47:03.018Z,5.70
2023-04-03T19:49:30.442Z,6.90
2023-04-03T19:51:58.024Z,5.90
2023-04-03T19:54:25.371Z,6.00
2023-04-03T19:57:00.432Z,3.90
2023-04-03T19:59:30.617Z,5.30
2023-04-03T20:01:58.311Z,5.50
2023-04-03T20:04:44.841Z,6.80
2023-04-03T20:07:20.507Z,7.70
2023-04-03T20:09:47.969Z,7.80
2023-04-03T20:12:18.498Z,11.10
2023-04-03T20:14:48.404Z,10.00
2023-04-03T20:17:18.424Z,8.20
2023-04-03T20:20:01.247Z,10.20
2023-04-03T20:22:41.589Z,11.00
2023-04-03T20:25:17.434Z,6.50
2023-04-03T20:27:54.971Z,7.40
2023-04-03T20:30:28.152Z,11.50
2023-04-03T20:32:59.266Z,7.80
2023-04-03T20:35:57.271Z,8.10
2023-04-03T20:38:39.084Z,10.10
2023-04-03T20:41:11.504Z,6.80
2023-04-03T20:43:40.052Z,6.50
2023-04-03T20:46:10.286Z,8.20
2023-04-03T20:48:40.895Z,8.50
2023-04-03T20:51:18.436Z,8.10
2023-04-03T20:54:06.772Z,7.00
2023-04-03T20:56:34.271Z,8.00
2023-04-03T20:59:07.167Z,6.60
2023-04-03T21:01:41.534Z,6.50
2023-04-03T21:04:17.149Z,6.20
2023-04-03T21:07:22.892Z,4.20
2023-04-03T21:10:28.833Z,4.80
2023-04-03T21:13:33.953Z,4.80
2023-04-03T21:16:04.125Z,4.60
2023-04-03T21:18:43.548Z,4.20
2023-04-03T21:21:19.794Z,4.80
2023-04-03T21:23:48.550Z,4.00
2023-04-03T21:26:29.427Z,4.40
2023-04-03T21:29:26.154Z,4.40
2023-04-03T21:32:18.627Z,4.70
2023-04-03T21:35:09.340Z,3.60
2023-04-03T21:37:57.890Z,4.10
2023-04-03T21:40:31.715Z,5.40
2023-04-03T21:43:08.586Z,4.10
2023-04-03T21:45:48.843Z,5.10
2023-04-03T21:48:18.143Z,5.20
2023-04-03T21:50:45.327Z,4.20
2023-04-03T21:56:54.344Z,5.80
2023-04-03T21:59:46.553Z,4.40
2023-04-03T22:02:43.251Z,3.50
2023-04-03T22:06:15.432Z,4.60
2023-04-03T22:09:05.828Z,3.60
2023-04-03T22:11:38.171Z,3.30
2023-04-03T22:14:08.482Z,3.50
2023-04-03T22:16:58.268Z,3.50
2023-04-03T22:19:48.738Z,3.00
2023-04-03T22:22:24.819Z,6.00
2023-04-03T22:25:06.043Z,4.60
2023-04-03T22:28:15.061Z,5.80
2023-04-03T22:31:22.108Z,6.30
2023-04-03T22:34:09.554Z,5.40
2023-04-03T22:36:53.721Z,5.00
2023-04-03T22:40:35.353Z,4.50
2023-04-03T22:43:36.525Z,5.10
2023-04-03T22:46:12.598Z,4.90
2023-04-03T22:48:58.906Z,5.00
2023-04-03T22:51:32.952Z,4.60
2023-04-03T22:55:20.976Z,5.60
2023-04-03T22:58:53.877Z,6.10
2023-04-03T23:02:00.252Z,6.50
2023-04-03T23:04:27.753Z,5.40
2023-04-03T23:07:00.027Z,5.60
2023-04-03T23:09:36.527Z,7.90
2023-04-03T23:12:12.273Z,12.40
2023-04-03T23:14:45.882Z,9.90
2023-04-03T23:17:23.742Z,4.80
2023-04-03T23:19:54.123Z,5.40
2023-04-03T23:22:30.177Z,7.00
2023-04-03T23:25:09.493Z,4.90
2023-04-03T23:27:58.000Z,5.50
2023-04-03T23:30:46.323Z,6.40
2023-04-03T23:33:30.585Z,7.10
2023-04-03T23:36:08.117Z,6.00
2023-04-03T23:38:43.125Z,5.30
2023-04-03T23:41:13.717Z,4.60
2023-04-03T23:43:48.428Z,5.00
2023-04-03T23:46:23.281Z,5.30
2023-04-03T23:49:10.846Z,4.80
2023-04-03T23:51:38.773Z,3.50
2023-04-03T23:54:07.111Z,4.20
2023-04-03T23:56:49.233Z,4.60
2023-04-03T23:59:16.473Z,5.70
